Flight Track Log - Related Links

Times and Time Zones

All times are in EDT time to prevent confusion due to time zone crossing. See the SWA407 flight status page for this flight to view local times or setup timezone preferences in your user account.

Time Position Orientation Groundspeed Altitude Reporting Facility
EDT Latitude Longitude Course Direction KTS MPH feet Rate Location/Type
Fri 15:46:02 27.9833 -82.5333 360° North 147 169 700  Level Tampa TRACON
Fri 15:46:32 28.0167 -82.5333 360° North 167 192 1,800 2,267 Climbing Tampa TRACON
Fri 15:47:32 28.0833 -82.5167 12° North 232 267 4,100 2,710 Climbing Tampa TRACON
Fri 15:50:40 28.3331 -82.5483 354° North 328 377 13,000 2,879 Climbing Jacksonville Center
Fri 15:51:40 28.4311 -82.5619 353° North 360 414 16,000 2,800 Climbing Jacksonville Center
Fri 15:52:40 28.5356 -82.5736 354° North 366 421 18,600 2,400 Climbing Jacksonville Center
Fri 15:53:40 28.6442 -82.5850 355° North 377 434 20,800 2,000 Climbing Jacksonville Center
Fri 15:54:40 28.7528 -82.6014 352° North 389 448 22,600 1,850 Climbing Jacksonville Center
Fri 15:55:40 28.8697 -82.6175 353° North 403 464 24,500 1,750 Climbing Jacksonville Center
Fri 15:56:40 28.9822 -82.6292 355° North 428 493 26,100 1,600 Climbing Jacksonville Center
Fri 15:57:40 29.1056 -82.6478 352° North 440 506 27,700 1,350 Climbing Jacksonville Center
Fri 15:58:40 29.2350 -82.6689 352° North 452 520 28,800 1,000 Climbing Jacksonville Center
Fri 15:59:40 29.3686 -82.6875 353° North 464 534 29,700 1,000 Climbing Jacksonville Center
Fri 16:00:40 29.5253 -82.6944 358° North 503 579 30,800 1,100 Climbing Jacksonville Center
Fri 16:01:40 29.6733 -82.6942 360° North 522 601 31,900 1,450 Climbing Jacksonville Center
Fri 16:02:40 29.8175 -82.6914 North 522 601 33,700 1,050 Climbing Jacksonville Center
Fri 16:03:40 29.9617 -82.6936 359° North 516 594 34,000 300 Climbing Jacksonville Center
Fri 16:04:40 30.0889 -82.6886 North 508 585 34,300 500 Climbing Jacksonville Center
Fri 16:05:40 30.2350 -82.6881 360° North 514 592 35,000 100 Climbing Jacksonville Center
Fri 16:06:40 30.3750 -82.6856 North 509 586 34,500 -750 Descending Jacksonville Center
Fri 16:07:40 30.5106 -82.6853 360° North 498 573 33,500 -750 Descending Jacksonville Center
Fri 16:08:40 30.6464 -82.6656 North 492 566 33,000 -250 Descending Jacksonville Center
Fri 16:09:40 30.7758 -82.6411 North 487 560 33,000  Level Jacksonville Center
Fri 16:10:40 30.9114 -82.6189 North 481 554 33,000  Level Jacksonville Center
Fri 16:11:40 31.0450 -82.5944 North 481 554 33,000  Level Jacksonville Center
Fri 16:12:40 31.1744 -82.5744 North 481 554 33,000  Level Jacksonville Center
Fri 16:13:40 31.3081 -82.5497 North 481 554 33,000  Level Jacksonville Center
Fri 16:14:40 31.4394 -82.5250 North 481 554 33,000  Level Jacksonville Center
Fri 16:15:40 31.5708 -82.5025 North 481 554 33,000  Level Jacksonville Center
Fri 16:16:40 31.7003 -82.4822 North 481 554 33,000  Level Jacksonville Center
Fri 16:19:11 32.0222 -82.4344 North 459 528 33,000  Level Atlanta Center
Fri 16:20:12 32.1469 -82.4125 North 447 514 33,000  Level Atlanta Center
Fri 16:21:12 32.2719 -82.3906 North 447 514 33,000  Level Atlanta Center
Fri 16:22:11 32.4011 -82.3733 North 447 514 33,000  Level Atlanta Center
Fri 16:23:11 32.5283 -82.3536 North 452 520 33,000  Level Atlanta Center
Fri 16:24:11 32.6572 -82.3339 North 457 526 33,000  Level Atlanta Center
Fri 16:25:11 32.7864 -82.3117 North 462 532 33,000  Level Atlanta Center
Fri 16:26:11 32.9239 -82.2892 North 462 532 33,000  Level Atlanta Center
Fri 16:27:12 33.0467 -82.2694 North 462 532 33,000  Level Atlanta Center
Fri 16:28:11 33.1739 -82.2494 North 457 526 33,000  Level Atlanta Center
Fri 16:29:11 33.2967 -82.2294 North 452 520 33,000  Level Atlanta Center
Fri 16:30:12 33.4175 -82.2069 North 442 509 33,000  Level Atlanta Center
Fri 16:31:11 33.5403 -82.1894 North 442 509 33,000  Level Atlanta Center
Fri 16:32:12 33.6631 -82.1669 North 442 509 33,000  Level Atlanta Center
Fri 16:33:12 33.7839 -82.1467 North 442 509 33,000  Level Atlanta Center
Fri 16:34:11 33.9047 -82.1267 North 442 509 33,000  Level Atlanta Center
Fri 16:35:12 34.0128 -82.1092 North 442 509 33,000  Level Atlanta Center
Fri 16:36:12 34.1294 -82.0889 North 435 501 33,000  Level Atlanta Center
Fri 16:37:11 34.2439 -82.0661 North 424 488 33,000  Level Atlanta Center
Fri 16:38:12 34.3583 -82.0483 North 419 482 33,000  Level Atlanta Center
Fri 16:39:11 34.4750 -82.0281 North 419 482 33,000  Level Atlanta Center
Fri 16:40:12 34.5914 -82.0075 North 419 482 33,000  Level Atlanta Center
Fri 16:41:11 34.7058 -81.9844 North 419 482 33,000  Level Atlanta Center
Fri 16:42:12 34.8183 -81.9692 North 413 475 33,000  Level Atlanta Center
Fri 16:43:12 34.9431 -81.9458 North 413 475 33,000  Level Atlanta Center
Fri 16:44:11 35.0556 -81.9303 North 406 467 33,000  Level Atlanta Center
Fri 16:45:11 35.1556 -81.9253 North 406 467 33,000  Level Atlanta Center
Fri 16:46:11 35.2681 -81.9197 North 406 467 33,000  Level Atlanta Center
Fri 16:47:11 35.3786 -81.9144 North 396 456 33,000  Level Atlanta Center
Fri 16:48:11 35.4911 -81.9114 North 396 456 33,000  Level Atlanta Center
Fri 16:49:11 35.6058 -81.9033 North 406 467 33,000  Level Atlanta Center
Fri 16:50:11 35.7308 -81.8975 North 406 467 33,000  Level Atlanta Center
Fri 16:51:11 35.8433 -81.8944 North 407 468 33,000  Level Atlanta Center
Fri 16:52:11 35.9558 -81.8864 North 407 468 33,000  Level Atlanta Center
Fri 16:53:13 36.0706 -81.8783 North 397 457 33,000  Level Atlanta Center
Fri 16:54:24 36.2019 -81.8747 North 397 457 33,000  Level Atlanta Center
Fri 16:55:23 36.3122 -81.8692 North 402 463 33,000  Level Atlanta Center
Fri 16:56:23 36.4228 -81.8636 North 397 457 33,000  Level Atlanta Center
Fri 16:57:23 36.5164 -81.8586 North 385 443 33,000  Level Atlanta Center
Fri 16:58:23 36.6186 -81.8531 North 369 425 33,000  Level Atlanta Center
Fri 17:00:53 36.8733 -81.8411 North 367 422 33,000  Level Indianapolis Center
Fri 17:01:55 36.9897 -81.8356 North 361 415 33,000  Level Indianapolis Center
Fri 17:02:57 37.0881 -81.8317 North 356 410 33,000  Level Indianapolis Center
Fri 17:03:59 37.1883 -81.8236 North 358 412 33,000  Level Indianapolis Center
Fri 17:05:01 37.2817 -81.7822 19° North 354 407 33,000  Level Indianapolis Center
Fri 17:06:03 37.3764 -81.7419 19° North 357 411 33,000  Level Indianapolis Center
Fri 17:07:05 37.4853 -81.6936 19° North 355 409 33,000  Level Indianapolis Center
Fri 17:08:07 37.5794 -81.6508 20° North 357 411 33,000  Level Indianapolis Center
Fri 17:09:09 37.6747 -81.6083 19° North 360 414 33,000  Level Indianapolis Center
Fri 17:10:11 37.7675 -81.5656 20° North 357 411 33,000  Level Indianapolis Center
Fri 17:11:13 37.8703 -81.5192 20° North 363 418 33,000  Level Indianapolis Center
Fri 17:12:15 37.9675 -81.4767 19° North 367 422 33,000  Level Indianapolis Center
Fri 17:13:17 38.0628 -81.4333 20° North 365 420 33,000  Level Indianapolis Center
Fri 17:14:19 38.1592 -81.3881 20° North 368 423 33,000  Level Indianapolis Center
Fri 17:15:21 38.2553 -81.3447 19° North 368 423 33,000  Level Indianapolis Center
Fri 17:16:23 38.3692 -81.2922 20° North 366 421 33,000  Level Indianapolis Center
Fri 17:17:25 38.4647 -81.2475 20° North 367 422 33,000  Level Indianapolis Center
Fri 17:18:27 38.5611 -81.2042 19° North 370 426 33,000  Level Indianapolis Center
Fri 17:19:30 38.6569 -81.1592 20° North 370 426 33,000  Level Indianapolis Center
Fri 17:20:32 38.7531 -81.1139 20° North 369 425 33,000  Level Indianapolis Center
Fri 17:21:34 38.8683 -81.0606 20° North 369 425 33,000  Level Indianapolis Center
Fri 17:22:36 38.9658 -81.0142 20° North 373 429 33,000  Level Indianapolis Center
Fri 17:23:38 39.0622 -80.9697 20° North 370 426 33,000  Level Indianapolis Center
Fri 17:24:40 39.1589 -80.9247 20° North 370 426 33,000  Level Indianapolis Center
Fri 17:25:42 39.2553 -80.8789 20° North 369 425 33,000  Level Indianapolis Center
Fri 17:26:44 39.3703 -80.8239 20° North 367 422 33,000  Level Indianapolis Center
Fri 17:27:46 39.4669 -80.7781 20° North 370 426 33,000  Level Indianapolis Center
Fri 17:28:48 39.5656 -80.7339 19° North 373 429 33,000  Level Indianapolis Center
Fri 17:30:03 39.6939 -80.6719 20° North 368 423 33,000  Level Cleveland Center
Fri 17:31:03 39.7900 -80.6264 20° North 368 423 33,000  Level Cleveland Center
Fri 17:32:03 39.8878 -80.5803 20° North 368 423 33,000  Level Cleveland Center
Fri 17:33:03 39.9817 -80.5344 21° North 368 423 33,000  Level Cleveland Center
Fri 17:34:03 40.0797 -80.4856 21° North 368 423 33,000  Level Cleveland Center
Fri 17:35:03 40.1775 -80.4392 20° North 368 423 33,000  Level Cleveland Center
Fri 17:36:03 40.2733 -80.3925 20° North 368 423 33,000  Level Cleveland Center
Fri 17:37:03 40.3672 -80.3489 19° North 368 423 33,000  Level Cleveland Center
Fri 17:38:03 40.4608 -80.2994 22° Northeast 368 423 33,000 -250 Level Cleveland Center
Fri 17:39:03 40.5586 -80.2553 19° North 368 423 32,500 -750 Descending Cleveland Center
Fri 17:40:03 40.6544 -80.2081 20° North 368 423 31,500 -750 Descending Cleveland Center
Fri 17:41:03 40.7522 -80.1583 21° North 368 423 31,000 -750 Descending Cleveland Center
Fri 17:42:03 40.8481 -80.1111 20° North 368 423 30,000 -950 Descending Cleveland Center
Fri 17:43:03 40.9353 -80.0664 21° North 368 423 29,100 -1,000 Descending Cleveland Center
Fri 17:44:03 41.0331 -80.0189 20° North 368 423 28,000 -1,100 Descending Cleveland Center
Fri 17:45:03 41.1350 -79.9656 22° Northeast 368 423 26,900 -1,050 Descending Cleveland Center
Fri 17:46:03 41.2286 -79.9233 19° North 363 418 25,900 -1,000 Descending Cleveland Center
Fri 17:47:03 41.3200 -79.8781 20° North 358 412 24,900 -950 Descending Cleveland Center
Fri 17:48:03 41.4114 -79.8300 22° Northeast 348 400 24,000 -450 Descending Cleveland Center
Fri 17:49:03 41.5006 -79.7819 22° Northeast 348 400 24,000  Level Cleveland Center
Fri 17:50:03 41.5919 -79.7364 20° North 348 400 24,000 -500 Level Cleveland Center
Fri 17:51:03 41.6833 -79.6906 21° North 348 400 23,000 -1,000 Descending Cleveland Center
Fri 17:52:03 41.7769 -79.6475 19° North 347 399 22,000 -967 Descending Cleveland Center
Fri 17:54:03 41.9511 -79.5558 21° North 341 392 20,100 -967 Descending Cleveland Center
Fri 17:55:03 42.0406 -79.5067 22° Northeast 341 392 19,100 -1,000 Descending Cleveland Center
Fri 17:56:03 42.1256 -79.4633 21° North 335 386 18,100 -950 Descending Cleveland Center
Fri 17:57:03 42.2125 -79.4197 20° North 328 377 17,200 -1,000 Descending Cleveland Center
Fri 17:58:03 42.2975 -79.3761 21° North 328 377 16,100 -1,400 Descending Cleveland Center
Fri 17:59:03 42.3764 -79.3353 21° North 322 371 14,400 -1,800 Descending Cleveland Center
Fri 18:00:03 42.4614 -79.2914 21° North 317 365 12,500 -1,850 Descending Cleveland Center
Fri 18:01:03 42.5442 -79.2558 18° North 312 359 10,700 -1,250 Descending Cleveland Center
Fri 18:02:03 42.6236 -79.2542 North 292 336 10,000 -900 Descending Cleveland Center
Fri 18:03:03 42.6603 -79.1997 48° Northeast 225 259 8,900 -1,150 Descending Cleveland Center
Fri 18:04:03 42.6714 -79.0894 82° East 242 278 7,700 -950 Descending Cleveland Center
Fri 18:05:03 42.6803 -78.9706 84° East 275 316 7,000 -549 Descending Cleveland Center
Fri 18:06:47 42.7000 -78.8000 81° East 242 278 6,200 -777 Descending Buffalo TRACON
Fri 18:08:00 42.8276 -78.7632 12° North  Level Estimated
Fri 18:08:47 42.7167 -78.6167 12° North 228 262 4,100  Level Buffalo TRACON
Fri 18:09:47 42.7500 -78.5500 56° Northeast 216 249 4,000 -400 Descending Buffalo TRACON
Fri 18:10:47 42.8000 -78.5333 14° North 182 209 3,300 -500 Descending Buffalo TRACON
Fri 18:11:47 42.8333 -78.5667 324° Northwest 164 189 3,000 -300 Descending Buffalo TRACON

Login

Don't have an account? Register now (free) for customized features, flight alerts, and more!